sensor_id;sensor_type;location;lat;lon;timestamp;temperature;humidity
25914;DHT22;13718;50.922;5.346;2022-09-13T00:01:41;18.50;99.90
25914;DHT22;13718;50.922;5.346;2022-09-13T00:04:06;18.60;99.90
25914;DHT22;13718;50.922;5.346;2022-09-13T00:06:32;18.60;99.90
25914;DHT22;13718;50.922;5.346;2022-09-13T00:08:59;18.70;99.90
25914;DHT22;13718;50.922;5.346;2022-09-13T00:11:27;18.70;99.90
25914;DHT22;13718;50.922;5.346;2022-09-13T00:13:53;19.00;99.90
25914;DHT22;13718;50.922;5.346;2022-09-13T00:16:21;18.90;99.90
25914;DHT22;13718;50.922;5.346;2022-09-13T00:18:47;18.90;99.90
25914;DHT22;13718;50.922;5.346;2022-09-13T00:21:16;18.90;99.90
25914;DHT22;13718;50.922;5.346;2022-09-13T00:23:44;18.90;99.90
25914;DHT22;13718;50.922;5.346;2022-09-13T00:26:13;18.80;99.90
25914;DHT22;13718;50.922;5.346;2022-09-13T00:28:39;18.70;99.90
25914;DHT22;13718;50.922;5.346;2022-09-13T00:31:06;18.80;99.90
25914;DHT22;13718;50.922;5.346;2022-09-13T00:33:33;18.70;99.90
25914;DHT22;13718;50.922;5.346;2022-09-13T00:36:03;18.60;99.90
25914;DHT22;13718;50.922;5.346;2022-09-13T00:38:29;18.60;99.90
25914;DHT22;13718;50.922;5.346;2022-09-13T00:40:55;18.50;99.90
25914;DHT22;13718;50.922;5.346;2022-09-13T00:43:49;18.50;99.90
25914;DHT22;13718;50.922;5.346;2022-09-13T00:46:38;18.40;99.90
25914;DHT22;13718;50.922;5.346;2022-09-13T00:49:23;18.20;99.90
25914;DHT22;13718;50.922;5.346;2022-09-13T00:52:02;18.10;99.90
25914;DHT22;13718;50.922;5.346;2022-09-13T00:54:34;18.00;99.90
25914;DHT22;13718;50.922;5.346;2022-09-13T00:57:02;17.90;99.90
25914;DHT22;13718;50.922;5.346;2022-09-13T00:59:36;17.90;99.90
25914;DHT22;13718;50.922;5.346;2022-09-13T01:02:02;17.90;99.90
25914;DHT22;13718;50.922;5.346;2022-09-13T01:04:31;18.00;99.90
25914;DHT22;13718;50.922;5.346;2022-09-13T01:07:03;18.00;99.90
25914;DHT22;13718;50.922;5.346;2022-09-13T01:09:31;18.10;99.90
25914;DHT22;13718;50.922;5.346;2022-09-13T01:12:05;18.20;99.90
25914;DHT22;13718;50.922;5.346;2022-09-13T01:14:33;18.20;99.90
25914;DHT22;13718;50.922;5.346;2022-09-13T01:16:59;18.30;99.90
25914;DHT22;13718;50.922;5.346;2022-09-13T01:19:25;18.30;99.90
25914;DHT22;13718;50.922;5.346;2022-09-13T01:25:39;18.40;99.90
25914;DHT22;13718;50.922;5.346;2022-09-13T01:30:11;18.50;99.90
25914;DHT22;13718;50.922;5.346;2022-09-13T01:49:34;18.90;99.90
25914;DHT22;13718;50.922;5.346;2022-09-13T01:52:08;18.90;99.90
25914;DHT22;13718;50.922;5.346;2022-09-13T02:04:43;19.40;99.90
25914;DHT22;13718;50.922;5.346;2022-09-13T02:07:16;19.50;99.90
25914;DHT22;13718;50.922;5.346;2022-09-13T02:09:48;19.50;99.90
25914;DHT22;13718;50.922;5.346;2022-09-13T02:12:21;19.40;99.90
25914;DHT22;13718;50.922;5.346;2022-09-13T02:14:55;19.30;99.90
25914;DHT22;13718;50.922;5.346;2022-09-13T02:17:26;19.30;99.90
25914;DHT22;13718;50.922;5.346;2022-09-13T02:20:01;19.30;99.90
25914;DHT22;13718;50.922;5.346;2022-09-13T02:22:32;19.20;99.90
25914;DHT22;13718;50.922;5.346;2022-09-13T02:25:05;19.20;99.90
25914;DHT22;13718;50.922;5.346;2022-09-13T02:27:33;19.10;99.90
25914;DHT22;13718;50.922;5.346;2022-09-13T02:30:09;19.10;99.90
25914;DHT22;13718;50.922;5.346;2022-09-13T02:32:40;19.20;99.90
25914;DHT22;13718;50.922;5.346;2022-09-13T02:35:12;19.30;99.90
25914;DHT22;13718;50.922;5.346;2022-09-13T02:37:43;19.50;99.90
25914;DHT22;13718;50.922;5.346;2022-09-13T02:40:15;19.50;99.90
25914;DHT22;13718;50.922;5.346;2022-09-13T02:42:54;19.50;99.90
25914;DHT22;13718;50.922;5.346;2022-09-13T02:45:28;19.40;99.90
25914;DHT22;13718;50.922;5.346;2022-09-13T02:47:59;19.40;99.90
25914;DHT22;13718;50.922;5.346;2022-09-13T02:50:44;19.30;99.90
25914;DHT22;13718;50.922;5.346;2022-09-13T02:56:07;19.00;99.90
25914;DHT22;13718;50.922;5.346;2022-09-13T03:01:03;18.80;99.90
25914;DHT22;13718;50.922;5.346;2022-09-13T03:03:29;18.60;99.90
25914;DHT22;13718;50.922;5.346;2022-09-13T03:05:54;18.60;99.90
25914;DHT22;13718;50.922;5.346;2022-09-13T03:08:21;18.50;99.90
25914;DHT22;13718;50.922;5.346;2022-09-13T03:24:10;18.60;99.90
25914;DHT22;13718;50.922;5.346;2022-09-13T03:26:44;18.70;99.90
25914;DHT22;13718;50.922;5.346;2022-09-13T03:35:26;18.80;99.90
25914;DHT22;13718;50.922;5.346;2022-09-13T03:38:02;18.60;99.90
25914;DHT22;13718;50.922;5.346;2022-09-13T03:43:27;18.50;99.90
25914;DHT22;13718;50.922;5.346;2022-09-13T03:46:03;18.50;99.90
25914;DHT22;13718;50.922;5.346;2022-09-13T03:48:30;18.50;99.90
25914;DHT22;13718;50.922;5.346;2022-09-13T03:50:56;18.50;99.90
25914;DHT22;13718;50.922;5.346;2022-09-13T03:53:25;18.40;99.90
25914;DHT22;13718;50.922;5.346;2022-09-13T03:55:51;18.60;99.90
25914;DHT22;13718;50.922;5.346;2022-09-13T03:58:19;18.70;99.90
25914;DHT22;13718;50.922;5.346;2022-09-13T04:00:46;18.80;99.90
25914;DHT22;13718;50.922;5.346;2022-09-13T04:03:12;18.80;99.90
25914;DHT22;13718;50.922;5.346;2022-09-13T04:05:38;18.80;99.90
25914;DHT22;13718;50.922;5.346;2022-09-13T04:08:05;18.70;99.90
25914;DHT22;13718;50.922;5.346;2022-09-13T04:10:33;18.60;99.90
25914;DHT22;13718;50.922;5.346;2022-09-13T04:12:59;18.60;99.90
25914;DHT22;13718;50.922;5.346;2022-09-13T04:15:30;18.60;99.90
25914;DHT22;13718;50.922;5.346;2022-09-13T04:17:56;18.70;99.90
25914;DHT22;13718;50.922;5.346;2022-09-13T04:20:21;18.70;99.90
25914;DHT22;13718;50.922;5.346;2022-09-13T04:22:55;18.60;99.90
25914;DHT22;13718;50.922;5.346;2022-09-13T04:25:22;18.60;99.90
25914;DHT22;13718;50.922;5.346;2022-09-13T04:27:52;18.60;99.90
25914;DHT22;13718;50.922;5.346;2022-09-13T04:30:18;18.50;99.90
25914;DHT22;13718;50.922;5.346;2022-09-13T04:32:43;18.40;99.90
25914;DHT22;13718;50.922;5.346;2022-09-13T04:35:10;18.40;99.90
25914;DHT22;13718;50.922;5.346;2022-09-13T04:37:36;18.50;99.90
25914;DHT22;13718;50.922;5.346;2022-09-13T04:40:02;18.50;99.90
25914;DHT22;13718;50.922;5.346;2022-09-13T04:42:28;18.50;99.90
25914;DHT22;13718;50.922;5.346;2022-09-13T04:44:54;18.50;99.90
25914;DHT22;13718;50.922;5.346;2022-09-13T04:47:20;18.40;99.90
25914;DHT22;13718;50.922;5.346;2022-09-13T04:49:46;18.40;99.90
25914;DHT22;13718;50.922;5.346;2022-09-13T04:52:13;18.40;99.90
25914;DHT22;13718;50.922;5.346;2022-09-13T04:54:38;18.40;99.90
25914;DHT22;13718;50.922;5.346;2022-09-13T04:57:04;18.40;99.90
25914;DHT22;13718;50.922;5.346;2022-09-13T04:59:30;18.40;99.90
25914;DHT22;13718;50.922;5.346;2022-09-13T05:01:56;18.40;99.90
25914;DHT22;13718;50.922;5.346;2022-09-13T05:04:21;18.40;99.90
25914;DHT22;13718;50.922;5.346;2022-09-13T05:06:47;18.40;99.90
25914;DHT22;13718;50.922;5.346;2022-09-13T05:09:13;18.40;99.90
25914;DHT22;13718;50.922;5.346;2022-09-13T05:11:40;18.40;99.90
25914;DHT22;13718;50.922;5.346;2022-09-13T05:14:08;18.30;99.90
25914;DHT22;13718;50.922;5.346;2022-09-13T05:16:34;18.40;99.90
25914;DHT22;13718;50.922;5.346;2022-09-13T05:19:00;18.40;99.90
25914;DHT22;13718;50.922;5.346;2022-09-13T05:21:26;18.40;99.90
25914;DHT22;13718;50.922;5.346;2022-09-13T05:23:53;18.40;99.90
25914;DHT22;13718;50.922;5.346;2022-09-13T05:26:20;18.40;99.90
25914;DHT22;13718;50.922;5.346;2022-09-13T05:28:46;18.30;99.90
25914;DHT22;13718;50.922;5.346;2022-09-13T05:31:27;18.40;99.90
25914;DHT22;13718;50.922;5.346;2022-09-13T05:34:01;18.40;99.90
25914;DHT22;13718;50.922;5.346;2022-09-13T05:36:28;18.40;99.90
25914;DHT22;13718;50.922;5.346;2022-09-13T05:38:54;18.40;99.90
25914;DHT22;13718;50.922;5.346;2022-09-13T05:41:20;18.50;99.90
25914;DHT22;13718;50.922;5.346;2022-09-13T05:43:46;18.60;99.90
25914;DHT22;13718;50.922;5.346;2022-09-13T05:46:14;18.60;99.90
25914;DHT22;13718;50.922;5.346;2022-09-13T05:48:40;18.60;99.90
25914;DHT22;13718;50.922;5.346;2022-09-13T05:51:14;18.60;99.90
25914;DHT22;13718;50.922;5.346;2022-09-13T05:53:41;18.60;99.90
25914;DHT22;13718;50.922;5.346;2022-09-13T05:56:14;18.70;99.90
25914;DHT22;13718;50.922;5.346;2022-09-13T05:58:42;18.80;99.90
25914;DHT22;13718;50.922;5.346;2022-09-13T06:01:08;18.90;99.90
25914;DHT22;13718;50.922;5.346;2022-09-13T06:03:34;18.90;99.90
25914;DHT22;13718;50.922;5.346;2022-09-13T06:06:01;18.90;99.90
25914;DHT22;13718;50.922;5.346;2022-09-13T06:08:28;18.80;99.90
25914;DHT22;13718;50.922;5.346;2022-09-13T06:11:02;18.80;99.90
25914;DHT22;13718;50.922;5.346;2022-09-13T06:13:29;18.90;99.90
25914;DHT22;13718;50.922;5.346;2022-09-13T06:15:57;18.90;99.90
25914;DHT22;13718;50.922;5.346;2022-09-13T06:18:23;19.00;99.90
25914;DHT22;13718;50.922;5.346;2022-09-13T06:20:49;19.10;99.90
25914;DHT22;13718;50.922;5.346;2022-09-13T06:23:15;19.20;99.90
25914;DHT22;13718;50.922;5.346;2022-09-13T06:25:41;19.20;99.90
25914;DHT22;13718;50.922;5.346;2022-09-13T06:28:07;19.10;99.90
25914;DHT22;13718;50.922;5.346;2022-09-13T06:30:32;19.10;99.90
25914;DHT22;13718;50.922;5.346;2022-09-13T06:32:58;19.30;99.90
25914;DHT22;13718;50.922;5.346;2022-09-13T06:35:24;19.30;99.90
25914;DHT22;13718;50.922;5.346;2022-09-13T06:37:50;19.40;99.90
25914;DHT22;13718;50.922;5.346;2022-09-13T06:40:19;19.40;99.90
25914;DHT22;13718;50.922;5.346;2022-09-13T06:42:45;19.40;99.90
25914;DHT22;13718;50.922;5.346;2022-09-13T06:45:10;19.40;99.90
25914;DHT22;13718;50.922;5.346;2022-09-13T06:47:36;19.40;99.90
25914;DHT22;13718;50.922;5.346;2022-09-13T06:50:02;19.40;99.90
25914;DHT22;13718;50.922;5.346;2022-09-13T06:52:27;19.50;99.90
25914;DHT22;13718;50.922;5.346;2022-09-13T06:54:53;19.60;99.90
25914;DHT22;13718;50.922;5.346;2022-09-13T06:57:19;19.70;99.90
25914;DHT22;13718;50.922;5.346;2022-09-13T06:59:45;19.80;99.90
25914;DHT22;13718;50.922;5.346;2022-09-13T07:02:11;19.90;99.90
25914;DHT22;13718;50.922;5.346;2022-09-13T07:04:38;19.90;99.90
25914;DHT22;13718;50.922;5.346;2022-09-13T07:07:04;20.00;99.90
25914;DHT22;13718;50.922;5.346;2022-09-13T07:09:30;20.10;99.90
25914;DHT22;13718;50.922;5.346;2022-09-13T07:11:55;20.20;99.90
25914;DHT22;13718;50.922;5.346;2022-09-13T07:14:26;20.30;99.90
25914;DHT22;13718;50.922;5.346;2022-09-13T07:16:52;20.50;99.90
25914;DHT22;13718;50.922;5.346;2022-09-13T07:19:21;20.60;99.90
25914;DHT22;13718;50.922;5.346;2022-09-13T07:21:51;20.70;99.90
25914;DHT22;13718;50.922;5.346;2022-09-13T07:24:17;20.80;99.90
25914;DHT22;13718;50.922;5.346;2022-09-13T07:26:44;21.00;99.90
25914;DHT22;13718;50.922;5.346;2022-09-13T07:29:13;21.20;99.90
25914;DHT22;13718;50.922;5.346;2022-09-13T07:31:42;21.50;99.90
25914;DHT22;13718;50.922;5.346;2022-09-13T07:34:13;21.70;99.90
25914;DHT22;13718;50.922;5.346;2022-09-13T07:36:41;22.00;99.90
25914;DHT22;13718;50.922;5.346;2022-09-13T07:39:07;22.30;99.90
25914;DHT22;13718;50.922;5.346;2022-09-13T07:41:33;22.50;99.90
25914;DHT22;13718;50.922;5.346;2022-09-13T07:44:00;22.70;99.90
25914;DHT22;13718;50.922;5.346;2022-09-13T07:46:28;22.80;99.90
25914;DHT22;13718;50.922;5.346;2022-09-13T07:48:57;22.90;99.90
25914;DHT22;13718;50.922;5.346;2022-09-13T07:51:28;23.10;99.90
25914;DHT22;13718;50.922;5.346;2022-09-13T07:53:56;23.40;99.90
25914;DHT22;13718;50.922;5.346;2022-09-13T07:56:24;23.60;99.90
25914;DHT22;13718;50.922;5.346;2022-09-13T07:58:51;23.80;99.90
25914;DHT22;13718;50.922;5.346;2022-09-13T08:01:44;24.00;99.90
25914;DHT22;13718;50.922;5.346;2022-09-13T08:04:15;24.30;99.90
25914;DHT22;13718;50.922;5.346;2022-09-13T08:06:44;24.50;99.90
25914;DHT22;13718;50.922;5.346;2022-09-13T08:09:11;24.70;99.90
25914;DHT22;13718;50.922;5.346;2022-09-13T08:11:42;24.90;99.90
25914;DHT22;13718;50.922;5.346;2022-09-13T08:14:11;25.10;99.90
25914;DHT22;13718;50.922;5.346;2022-09-13T08:16:37;25.40;99.90
25914;DHT22;13718;50.922;5.346;2022-09-13T08:19:04;25.90;99.90
25914;DHT22;13718;50.922;5.346;2022-09-13T08:21:38;26.90;99.90
25914;DHT22;13718;50.922;5.346;2022-09-13T08:24:05;28.10;99.10
25914;DHT22;13718;50.922;5.346;2022-09-13T08:26:32;29.00;96.70
25914;DHT22;13718;50.922;5.346;2022-09-13T08:28:59;30.10;94.70
25914;DHT22;13718;50.922;5.346;2022-09-13T08:31:25;31.30;92.10
25914;DHT22;13718;50.922;5.346;2022-09-13T08:33:51;32.50;88.20
25914;DHT22;13718;50.922;5.346;2022-09-13T08:36:18;33.10;83.90
25914;DHT22;13718;50.922;5.346;2022-09-13T08:38:52;33.80;81.20
25914;DHT22;13718;50.922;5.346;2022-09-13T08:49:47;35.70;70.60
25914;DHT22;13718;50.922;5.346;2022-09-13T08:54:39;36.80;65.70
25914;DHT22;13718;50.922;5.346;2022-09-13T09:05:49;31.50;75.30
25914;DHT22;13718;50.922;5.346;2022-09-13T09:08:32;30.60;77.50
25914;DHT22;13718;50.922;5.346;2022-09-13T09:11:55;30.00;79.20
25914;DHT22;13718;50.922;5.346;2022-09-13T09:13:56;29.40;80.40
25914;DHT22;13718;50.922;5.346;2022-09-13T09:16:44;29.00;81.80
25914;DHT22;13718;50.922;5.346;2022-09-13T09:19:28;28.70;83.00
25914;DHT22;13718;50.922;5.346;2022-09-13T09:22:00;28.40;84.00
25914;DHT22;13718;50.922;5.346;2022-09-13T09:24:26;28.20;85.10
25914;DHT22;13718;50.922;5.346;2022-09-13T09:26:52;28.20;85.60
25914;DHT22;13718;50.922;5.346;2022-09-13T09:29:22;28.00;86.40
25914;DHT22;13718;50.922;5.346;2022-09-13T09:37:30;27.40;89.20
25914;DHT22;13718;50.922;5.346;2022-09-13T09:40:00;27.30;90.00
25914;DHT22;13718;50.922;5.346;2022-09-13T09:42:29;27.40;89.60
25914;DHT22;13718;50.922;5.346;2022-09-13T09:45:23;27.30;89.40
25914;DHT22;13718;50.922;5.346;2022-09-13T09:47:47;27.20;89.20
25914;DHT22;13718;50.922;5.346;2022-09-13T09:50:23;27.20;90.20
25914;DHT22;13718;50.922;5.346;2022-09-13T09:53:01;27.20;90.10
25914;DHT22;13718;50.922;5.346;2022-09-13T09:55:48;27.10;90.50
25914;DHT22;13718;50.922;5.346;2022-09-13T09:58:41;27.30;90.90
25914;DHT22;13718;50.922;5.346;2022-09-13T10:03:59;27.60;90.10
25914;DHT22;13718;50.922;5.346;2022-09-13T10:06:26;27.70;90.30
25914;DHT22;13718;50.922;5.346;2022-09-13T10:09:20;27.90;90.10
25914;DHT22;13718;50.922;5.346;2022-09-13T10:11:47;28.10;90.00
25914;DHT22;13718;50.922;5.346;2022-09-13T10:14:34;28.30;89.40
25914;DHT22;13718;50.922;5.346;2022-09-13T10:17:24;28.50;88.70
25914;DHT22;13718;50.922;5.346;2022-09-13T10:22:27;28.60;89.90
25914;DHT22;13718;50.922;5.346;2022-09-13T10:24:53;28.70;88.40
25914;DHT22;13718;50.922;5.346;2022-09-13T10:27:40;28.70;87.00
25914;DHT22;13718;50.922;5.346;2022-09-13T10:33:03;28.50;88.30
25914;DHT22;13718;50.922;5.346;2022-09-13T10:35:30;28.40;88.50
25914;DHT22;13718;50.922;5.346;2022-09-13T10:37:57;28.30;88.30
25914;DHT22;13718;50.922;5.346;2022-09-13T10:40:27;28.30;88.50
25914;DHT22;13718;50.922;5.346;2022-09-13T10:42:56;28.10;88.00
25914;DHT22;13718;50.922;5.346;2022-09-13T10:45:24;28.10;89.10
25914;DHT22;13718;50.922;5.346;2022-09-13T10:47:57;28.00;88.60
25914;DHT22;13718;50.922;5.346;2022-09-13T10:50:28;28.00;88.80
25914;DHT22;13718;50.922;5.346;2022-09-13T10:52:59;27.90;88.90
25914;DHT22;13718;50.922;5.346;2022-09-13T10:58:15;27.80;89.10
25914;DHT22;13718;50.922;5.346;2022-09-13T11:01:10;27.80;89.90
25914;DHT22;13718;50.922;5.346;2022-09-13T11:17:55;27.70;90.60
25914;DHT22;13718;50.922;5.346;2022-09-13T11:20:37;27.60;90.50
25914;DHT22;13718;50.922;5.346;2022-09-13T11:28:15;27.80;91.10
25914;DHT22;13718;50.922;5.346;2022-09-13T11:31:07;27.90;90.50
25914;DHT22;13718;50.922;5.346;2022-09-13T11:34:03;27.90;90.50
25914;DHT22;13718;50.922;5.346;2022-09-13T11:55:26;28.00;90.50
25914;DHT22;13718;50.922;5.346;2022-09-13T11:58:09;28.20;90.40
25914;DHT22;13718;50.922;5.346;2022-09-13T12:00:47;28.00;90.60
25914;DHT22;13718;50.922;5.346;2022-09-13T12:06:07;27.90;90.90
25914;DHT22;13718;50.922;5.346;2022-09-13T12:08:39;27.90;91.00
25914;DHT22;13718;50.922;5.346;2022-09-13T12:11:20;28.00;90.00
25914;DHT22;13718;50.922;5.346;2022-09-13T12:13:50;28.20;89.90
25914;DHT22;13718;50.922;5.346;2022-09-13T12:18:56;27.90;90.30
25914;DHT22;13718;50.922;5.346;2022-09-13T12:21:26;27.70;90.90
25914;DHT22;13718;50.922;5.346;2022-09-13T12:29:31;27.80;91.20
25914;DHT22;13718;50.922;5.346;2022-09-13T12:32:05;28.00;91.10
25914;DHT22;13718;50.922;5.346;2022-09-13T13:00:00;27.70;90.80
25914;DHT22;13718;50.922;5.346;2022-09-13T13:04:53;27.80;90.70
25914;DHT22;13718;50.922;5.346;2022-09-13T13:07:21;27.70;91.00
25914;DHT22;13718;50.922;5.346;2022-09-13T13:09:49;27.60;91.10
25914;DHT22;13718;50.922;5.346;2022-09-13T13:12:37;27.60;90.60
25914;DHT22;13718;50.922;5.346;2022-09-13T13:17:54;27.60;91.10
25914;DHT22;13718;50.922;5.346;2022-09-13T13:26:09;28.00;90.70
25914;DHT22;13718;50.922;5.346;2022-09-13T13:55:04;28.10;90.70
25914;DHT22;13718;50.922;5.346;2022-09-13T14:00:45;27.90;90.60
25914;DHT22;13718;50.922;5.346;2022-09-13T14:03:48;27.80;90.00
25914;DHT22;13718;50.922;5.346;2022-09-13T14:06:25;27.70;90.40
25914;DHT22;13718;50.922;5.346;2022-09-13T14:14:56;26.90;92.90
25914;DHT22;13718;50.922;5.346;2022-09-13T14:17:52;26.70;93.50
25914;DHT22;13718;50.922;5.346;2022-09-13T14:20:24;26.50;93.80
25914;DHT22;13718;50.922;5.346;2022-09-13T14:22:49;26.40;94.10
25914;DHT22;13718;50.922;5.346;2022-09-13T14:25:24;26.30;94.70
25914;DHT22;13718;50.922;5.346;2022-09-13T14:27:55;26.40;94.60
25914;DHT22;13718;50.922;5.346;2022-09-13T14:30:30;26.40;94.20
25914;DHT22;13718;50.922;5.346;2022-09-13T14:32:58;26.40;94.10
25914;DHT22;13718;50.922;5.346;2022-09-13T14:35:27;26.40;94.30
25914;DHT22;13718;50.922;5.346;2022-09-13T14:37:53;26.40;94.30
25914;DHT22;13718;50.922;5.346;2022-09-13T14:40:23;26.50;94.00
25914;DHT22;13718;50.922;5.346;2022-09-13T14:42:51;26.50;94.20
25914;DHT22;13718;50.922;5.346;2022-09-13T14:45:25;26.30;94.50
25914;DHT22;13718;50.922;5.346;2022-09-13T14:50:45;26.20;94.80
25914;DHT22;13718;50.922;5.346;2022-09-13T14:53:18;26.10;95.10
25914;DHT22;13718;50.922;5.346;2022-09-13T14:55:57;26.00;95.50
25914;DHT22;13718;50.922;5.346;2022-09-13T14:58:48;25.90;95.90
25914;DHT22;13718;50.922;5.346;2022-09-13T15:01:18;25.80;96.30
25914;DHT22;13718;50.922;5.346;2022-09-13T15:03:47;25.70;96.90
25914;DHT22;13718;50.922;5.346;2022-09-13T15:06:34;25.60;97.50
25914;DHT22;13718;50.922;5.346;2022-09-13T15:11:35;25.40;99.30
25914;DHT22;13718;50.922;5.346;2022-09-13T15:14:23;25.40;99.60
25914;DHT22;13718;50.922;5.346;2022-09-13T15:19:42;24.90;99.90
25914;DHT22;13718;50.922;5.346;2022-09-13T15:22:32;24.80;99.90
25914;DHT22;13718;50.922;5.346;2022-09-13T15:24:59;24.70;99.90
25914;DHT22;13718;50.922;5.346;2022-09-13T15:27:31;24.70;99.90
25914;DHT22;13718;50.922;5.346;2022-09-13T15:30:26;24.60;99.90
25914;DHT22;13718;50.922;5.346;2022-09-13T15:35:46;24.50;99.90
25914;DHT22;13718;50.922;5.346;2022-09-13T15:38:27;24.40;99.90
25914;DHT22;13718;50.922;5.346;2022-09-13T15:40:59;24.30;99.90
25914;DHT22;13718;50.922;5.346;2022-09-13T15:43:25;24.30;99.90
25914;DHT22;13718;50.922;5.346;2022-09-13T15:45:51;24.10;99.90
25914;DHT22;13718;50.922;5.346;2022-09-13T15:48:31;23.90;99.90
25914;DHT22;13718;50.922;5.346;2022-09-13T15:51:08;23.70;99.90
25914;DHT22;13718;50.922;5.346;2022-09-13T15:53:36;23.50;99.90
25914;DHT22;13718;50.922;5.346;2022-09-13T15:56:03;23.30;99.90
25914;DHT22;13718;50.922;5.346;2022-09-13T15:58:29;23.20;99.90
25914;DHT22;13718;50.922;5.346;2022-09-13T16:00:55;23.10;99.90
25914;DHT22;13718;50.922;5.346;2022-09-13T16:03:21;23.00;99.90
25914;DHT22;13718;50.922;5.346;2022-09-13T16:05:46;22.90;99.90
25914;DHT22;13718;50.922;5.346;2022-09-13T16:08:12;22.80;99.90
25914;DHT22;13718;50.922;5.346;2022-09-13T16:10:38;22.80;99.90
25914;DHT22;13718;50.922;5.346;2022-09-13T16:13:03;22.70;99.90
25914;DHT22;13718;50.922;5.346;2022-09-13T16:15:29;22.60;99.90
25914;DHT22;13718;50.922;5.346;2022-09-13T16:17:55;22.60;99.90
25914;DHT22;13718;50.922;5.346;2022-09-13T16:20:20;22.50;99.90
25914;DHT22;13718;50.922;5.346;2022-09-13T16:22:46;22.40;99.90
25914;DHT22;13718;50.922;5.346;2022-09-13T16:25:13;22.40;99.90
25914;DHT22;13718;50.922;5.346;2022-09-13T16:27:40;22.40;99.90
25914;DHT22;13718;50.922;5.346;2022-09-13T16:30:08;22.30;99.90
25914;DHT22;13718;50.922;5.346;2022-09-13T16:32:34;22.20;99.90
25914;DHT22;13718;50.922;5.346;2022-09-13T16:35:00;22.10;99.90
25914;DHT22;13718;50.922;5.346;2022-09-13T16:37:25;22.00;99.90
25914;DHT22;13718;50.922;5.346;2022-09-13T16:39:54;21.90;99.90
25914;DHT22;13718;50.922;5.346;2022-09-13T16:42:19;21.70;99.90
25914;DHT22;13718;50.922;5.346;2022-09-13T16:44:45;21.80;99.90
25914;DHT22;13718;50.922;5.346;2022-09-13T16:47:11;21.80;99.90
25914;DHT22;13718;50.922;5.346;2022-09-13T16:49:36;21.60;99.90
25914;DHT22;13718;50.922;5.346;2022-09-13T16:52:02;21.40;99.90
25914;DHT22;13718;50.922;5.346;2022-09-13T16:54:28;21.40;99.90
25914;DHT22;13718;50.922;5.346;2022-09-13T16:56:56;21.30;99.90
25914;DHT22;13718;50.922;5.346;2022-09-13T16:59:22;21.20;99.90
25914;DHT22;13718;50.922;5.346;2022-09-13T17:01:48;21.20;99.90
25914;DHT22;13718;50.922;5.346;2022-09-13T17:04:13;21.20;99.90
25914;DHT22;13718;50.922;5.346;2022-09-13T17:06:39;21.30;99.90
25914;DHT22;13718;50.922;5.346;2022-09-13T17:09:06;21.20;99.90
25914;DHT22;13718;50.922;5.346;2022-09-13T17:11:37;21.10;99.90
25914;DHT22;13718;50.922;5.346;2022-09-13T17:14:05;21.00;99.90
25914;DHT22;13718;50.922;5.346;2022-09-13T17:16:34;20.90;99.90
25914;DHT22;13718;50.922;5.346;2022-09-13T17:19:02;21.00;99.90
25914;DHT22;13718;50.922;5.346;2022-09-13T17:21:29;21.00;99.90
25914;DHT22;13718;50.922;5.346;2022-09-13T17:23:55;21.00;99.90
25914;DHT22;13718;50.922;5.346;2022-09-13T17:26:21;20.80;99.90
25914;DHT22;13718;50.922;5.346;2022-09-13T17:28:47;20.70;99.90
25914;DHT22;13718;50.922;5.346;2022-09-13T17:31:13;20.60;99.90
25914;DHT22;13718;50.922;5.346;2022-09-13T17:33:39;20.50;99.90
25914;DHT22;13718;50.922;5.346;2022-09-13T17:36:07;20.50;99.90
25914;DHT22;13718;50.922;5.346;2022-09-13T17:38:34;20.40;99.90
25914;DHT22;13718;50.922;5.346;2022-09-13T17:41:03;20.30;99.90
25914;DHT22;13718;50.922;5.346;2022-09-13T17:43:30;20.30;99.90
25914;DHT22;13718;50.922;5.346;2022-09-13T17:45:56;20.20;99.90
25914;DHT22;13718;50.922;5.346;2022-09-13T17:48:22;20.20;99.90
25914;DHT22;13718;50.922;5.346;2022-09-13T17:50:47;20.10;99.90
25914;DHT22;13718;50.922;5.346;2022-09-13T17:53:13;20.20;99.90
25914;DHT22;13718;50.922;5.346;2022-09-13T17:55:46;20.10;99.90
25914;DHT22;13718;50.922;5.346;2022-09-13T17:58:12;20.10;99.90
25914;DHT22;13718;50.922;5.346;2022-09-13T18:00:37;20.10;99.90
25914;DHT22;13718;50.922;5.346;2022-09-13T18:03:03;20.10;99.90
25914;DHT22;13718;50.922;5.346;2022-09-13T18:05:28;20.10;99.90
25914;DHT22;13718;50.922;5.346;2022-09-13T18:07:54;20.00;99.90
25914;DHT22;13718;50.922;5.346;2022-09-13T18:10:20;20.00;99.90
25914;DHT22;13718;50.922;5.346;2022-09-13T18:12:45;20.00;99.90
25914;DHT22;13718;50.922;5.346;2022-09-13T18:15:11;20.10;99.90
25914;DHT22;13718;50.922;5.346;2022-09-13T18:17:36;20.00;99.90
25914;DHT22;13718;50.922;5.346;2022-09-13T18:20:02;20.00;99.90
25914;DHT22;13718;50.922;5.346;2022-09-13T18:22:28;20.00;99.90
25914;DHT22;13718;50.922;5.346;2022-09-13T18:24:54;19.90;99.90
25914;DHT22;13718;50.922;5.346;2022-09-13T18:27:20;19.90;99.90
25914;DHT22;13718;50.922;5.346;2022-09-13T18:29:45;20.00;99.90
25914;DHT22;13718;50.922;5.346;2022-09-13T18:32:11;20.00;99.90
25914;DHT22;13718;50.922;5.346;2022-09-13T18:34:37;20.00;99.90
25914;DHT22;13718;50.922;5.346;2022-09-13T18:37:03;20.00;99.90
25914;DHT22;13718;50.922;5.346;2022-09-13T18:39:28;20.00;99.90
25914;DHT22;13718;50.922;5.346;2022-09-13T18:41:54;20.00;99.90
25914;DHT22;13718;50.922;5.346;2022-09-13T18:44:20;19.80;99.90
25914;DHT22;13718;50.922;5.346;2022-09-13T18:46:46;19.80;99.90
25914;DHT22;13718;50.922;5.346;2022-09-13T18:49:12;19.80;99.90
25914;DHT22;13718;50.922;5.346;2022-09-13T18:51:40;19.70;99.90
25914;DHT22;13718;50.922;5.346;2022-09-13T18:54:09;19.80;99.90
25914;DHT22;13718;50.922;5.346;2022-09-13T18:56:35;19.70;99.90
25914;DHT22;13718;50.922;5.346;2022-09-13T18:59:02;19.80;99.90
25914;DHT22;13718;50.922;5.346;2022-09-13T19:01:31;19.70;99.90
25914;DHT22;13718;50.922;5.346;2022-09-13T19:04:11;19.70;99.90
25914;DHT22;13718;50.922;5.346;2022-09-13T19:06:42;19.60;99.90
25914;DHT22;13718;50.922;5.346;2022-09-13T19:09:09;19.70;99.90
25914;DHT22;13718;50.922;5.346;2022-09-13T19:11:37;19.60;99.90
25914;DHT22;13718;50.922;5.346;2022-09-13T19:14:04;19.60;99.90
25914;DHT22;13718;50.922;5.346;2022-09-13T19:16:32;19.60;99.90
25914;DHT22;13718;50.922;5.346;2022-09-13T19:18:58;19.60;99.90
25914;DHT22;13718;50.922;5.346;2022-09-13T19:21:29;19.60;99.90
25914;DHT22;13718;50.922;5.346;2022-09-13T19:23:56;19.60;99.90
25914;DHT22;13718;50.922;5.346;2022-09-13T19:26:24;19.60;99.90
25914;DHT22;13718;50.922;5.346;2022-09-13T19:28:56;19.60;99.90
25914;DHT22;13718;50.922;5.346;2022-09-13T19:31:25;19.60;99.90
25914;DHT22;13718;50.922;5.346;2022-09-13T19:33:53;19.60;99.90
25914;DHT22;13718;50.922;5.346;2022-09-13T19:36:21;19.60;99.90